sensor_id;sensor_type;location;lat;lon;timestamp;temperature;humidity
4828;DHT22;2428;48.732;9.148;2023-04-05T00:01:21;2.00;99.90
4828;DHT22;2428;48.732;9.148;2023-04-05T00:03:46;2.00;99.90
4828;DHT22;2428;48.732;9.148;2023-04-05T00:06:12;1.90;99.90
4828;DHT22;2428;48.732;9.148;2023-04-05T00:08:38;1.90;99.90
4828;DHT22;2428;48.732;9.148;2023-04-05T00:11:03;1.90;99.90
4828;DHT22;2428;48.732;9.148;2023-04-05T00:13:30;1.90;99.90
4828;DHT22;2428;48.732;9.148;2023-04-05T00:15:56;2.00;99.90
4828;DHT22;2428;48.732;9.148;2023-04-05T00:18:22;2.00;99.90
4828;DHT22;2428;48.732;9.148;2023-04-05T00:20:52;1.90;99.90
4828;DHT22;2428;48.732;9.148;2023-04-05T00:23:18;2.00;99.90
4828;DHT22;2428;48.732;9.148;2023-04-05T00:25:44;2.00;99.90
4828;DHT22;2428;48.732;9.148;2023-04-05T00:28:11;2.00;99.90
4828;DHT22;2428;48.732;9.148;2023-04-05T00:30:36;2.00;99.90
4828;DHT22;2428;48.732;9.148;2023-04-05T00:33:02;2.00;99.90
4828;DHT22;2428;48.732;9.148;2023-04-05T00:35:28;2.00;99.90
4828;DHT22;2428;48.732;9.148;2023-04-05T00:37:54;2.00;99.90
4828;DHT22;2428;48.732;9.148;2023-04-05T00:40:21;2.00;99.90
4828;DHT22;2428;48.732;9.148;2023-04-05T00:42:47;2.00;99.90
4828;DHT22;2428;48.732;9.148;2023-04-05T00:45:13;2.10;99.90
4828;DHT22;2428;48.732;9.148;2023-04-05T00:47:40;2.10;99.90
4828;DHT22;2428;48.732;9.148;2023-04-05T00:50:08;2.10;99.90
4828;DHT22;2428;48.732;9.148;2023-04-05T00:52:34;2.10;99.90
4828;DHT22;2428;48.732;9.148;2023-04-05T00:55:05;2.10;99.90
4828;DHT22;2428;48.732;9.148;2023-04-05T00:57:32;2.10;99.90
4828;DHT22;2428;48.732;9.148;2023-04-05T01:00:00;2.10;99.90
4828;DHT22;2428;48.732;9.148;2023-04-05T01:02:33;2.00;99.90
4828;DHT22;2428;48.732;9.148;2023-04-05T01:05:11;2.10;99.90
4828;DHT22;2428;48.732;9.148;2023-04-05T01:07:58;2.10;99.90
4828;DHT22;2428;48.732;9.148;2023-04-05T01:10:34;2.00;99.90
4828;DHT22;2428;48.732;9.148;2023-04-05T01:13:02;1.90;99.90
4828;DHT22;2428;48.732;9.148;2023-04-05T01:15:28;1.80;99.90
4828;DHT22;2428;48.732;9.148;2023-04-05T01:17:54;1.80;99.90
4828;DHT22;2428;48.732;9.148;2023-04-05T01:20:22;1.80;99.90
4828;DHT22;2428;48.732;9.148;2023-04-05T01:28:30;1.70;99.90
4828;DHT22;2428;48.732;9.148;2023-04-05T01:31:32;1.70;99.90
4828;DHT22;2428;48.732;9.148;2023-04-05T01:34:07;1.70;99.90
4828;DHT22;2428;48.732;9.148;2023-04-05T01:36:54;1.70;99.90
4828;DHT22;2428;48.732;9.148;2023-04-05T01:39:20;1.60;99.90
4828;DHT22;2428;48.732;9.148;2023-04-05T01:41:47;1.60;99.90
4828;DHT22;2428;48.732;9.148;2023-04-05T01:44:12;1.60;99.90
4828;DHT22;2428;48.732;9.148;2023-04-05T01:46:38;1.60;99.90
4828;DHT22;2428;48.732;9.148;2023-04-05T01:49:04;1.60;99.90
4828;DHT22;2428;48.732;9.148;2023-04-05T01:51:30;1.50;99.90
4828;DHT22;2428;48.732;9.148;2023-04-05T01:53:56;1.50;99.90
4828;DHT22;2428;48.732;9.148;2023-04-05T01:56:21;1.50;99.90
4828;DHT22;2428;48.732;9.148;2023-04-05T01:58:47;1.50;99.90
4828;DHT22;2428;48.732;9.148;2023-04-05T02:01:12;1.50;99.90
4828;DHT22;2428;48.732;9.148;2023-04-05T02:03:38;1.50;99.90
4828;DHT22;2428;48.732;9.148;2023-04-05T02:06:04;1.50;99.90
4828;DHT22;2428;48.732;9.148;2023-04-05T02:08:30;1.50;99.90
4828;DHT22;2428;48.732;9.148;2023-04-05T02:10:56;1.40;99.90
4828;DHT22;2428;48.732;9.148;2023-04-05T02:13:21;1.40;99.90
4828;DHT22;2428;48.732;9.148;2023-04-05T02:15:48;1.40;99.90
4828;DHT22;2428;48.732;9.148;2023-04-05T02:18:15;1.40;99.90
4828;DHT22;2428;48.732;9.148;2023-04-05T02:20:41;1.40;99.90
4828;DHT22;2428;48.732;9.148;2023-04-05T02:23:06;1.30;99.90
4828;DHT22;2428;48.732;9.148;2023-04-05T02:25:33;1.30;99.90
4828;DHT22;2428;48.732;9.148;2023-04-05T02:27:58;1.30;99.90
4828;DHT22;2428;48.732;9.148;2023-04-05T02:30:24;1.20;99.90
4828;DHT22;2428;48.732;9.148;2023-04-05T02:32:53;1.20;99.90
4828;DHT22;2428;48.732;9.148;2023-04-05T02:35:20;1.20;99.90
4828;DHT22;2428;48.732;9.148;2023-04-05T02:37:46;1.20;99.90
4828;DHT22;2428;48.732;9.148;2023-04-05T02:40:13;1.20;99.90
4828;DHT22;2428;48.732;9.148;2023-04-05T02:42:39;1.20;99.90
4828;DHT22;2428;48.732;9.148;2023-04-05T02:45:05;1.20;99.90
4828;DHT22;2428;48.732;9.148;2023-04-05T02:47:32;1.20;99.90
4828;DHT22;2428;48.732;9.148;2023-04-05T02:49:58;1.30;99.90
4828;DHT22;2428;48.732;9.148;2023-04-05T02:52:24;1.30;99.90
4828;DHT22;2428;48.732;9.148;2023-04-05T02:54:49;1.30;99.90
4828;DHT22;2428;48.732;9.148;2023-04-05T02:57:15;1.30;99.90
4828;DHT22;2428;48.732;9.148;2023-04-05T02:59:40;1.20;99.90
4828;DHT22;2428;48.732;9.148;2023-04-05T03:02:08;1.20;99.90
4828;DHT22;2428;48.732;9.148;2023-04-05T03:04:34;1.10;99.90
4828;DHT22;2428;48.732;9.148;2023-04-05T03:07:03;1.20;99.90
4828;DHT22;2428;48.732;9.148;2023-04-05T03:09:29;1.20;99.90
4828;DHT22;2428;48.732;9.148;2023-04-05T03:12:01;1.10;99.90
4828;DHT22;2428;48.732;9.148;2023-04-05T03:14:31;1.00;99.90
4828;DHT22;2428;48.732;9.148;2023-04-05T03:16:57;1.10;99.90
4828;DHT22;2428;48.732;9.148;2023-04-05T03:19:24;1.10;99.90
4828;DHT22;2428;48.732;9.148;2023-04-05T03:21:51;1.00;99.90
4828;DHT22;2428;48.732;9.148;2023-04-05T03:24:17;1.00;99.90
4828;DHT22;2428;48.732;9.148;2023-04-05T03:26:46;1.00;99.90
4828;DHT22;2428;48.732;9.148;2023-04-05T03:29:12;0.90;99.90
4828;DHT22;2428;48.732;9.148;2023-04-05T03:31:38;1.00;99.90
4828;DHT22;2428;48.732;9.148;2023-04-05T03:34:03;1.00;99.90
4828;DHT22;2428;48.732;9.148;2023-04-05T03:36:29;1.00;99.90
4828;DHT22;2428;48.732;9.148;2023-04-05T03:39:06;1.00;99.90
4828;DHT22;2428;48.732;9.148;2023-04-05T03:41:32;1.00;99.90
4828;DHT22;2428;48.732;9.148;2023-04-05T03:43:58;1.00;99.90
4828;DHT22;2428;48.732;9.148;2023-04-05T03:46:24;0.90;99.90
4828;DHT22;2428;48.732;9.148;2023-04-05T03:48:49;0.80;99.90
4828;DHT22;2428;48.732;9.148;2023-04-05T03:51:15;0.90;99.90
4828;DHT22;2428;48.732;9.148;2023-04-05T03:53:43;0.90;99.90
4828;DHT22;2428;48.732;9.148;2023-04-05T03:56:09;0.80;99.90
4828;DHT22;2428;48.732;9.148;2023-04-05T03:58:35;0.70;99.90
4828;DHT22;2428;48.732;9.148;2023-04-05T04:01:02;0.80;99.90
4828;DHT22;2428;48.732;9.148;2023-04-05T04:03:27;0.70;99.90
4828;DHT22;2428;48.732;9.148;2023-04-05T04:05:55;0.80;99.90
4828;DHT22;2428;48.732;9.148;2023-04-05T04:08:21;0.70;99.90
4828;DHT22;2428;48.732;9.148;2023-04-05T04:10:47;0.70;99.90
4828;DHT22;2428;48.732;9.148;2023-04-05T04:13:12;0.70;99.90
4828;DHT22;2428;48.732;9.148;2023-04-05T04:15:38;0.70;99.90
4828;DHT22;2428;48.732;9.148;2023-04-05T04:18:04;0.70;99.90
4828;DHT22;2428;48.732;9.148;2023-04-05T04:20:29;0.60;99.90
4828;DHT22;2428;48.732;9.148;2023-04-05T04:22:56;0.60;99.90
4828;DHT22;2428;48.732;9.148;2023-04-05T04:25:21;0.60;99.90
4828;DHT22;2428;48.732;9.148;2023-04-05T04:27:47;0.60;99.90
4828;DHT22;2428;48.732;9.148;2023-04-05T04:30:14;0.60;99.90
4828;DHT22;2428;48.732;9.148;2023-04-05T04:32:41;0.50;99.90
4828;DHT22;2428;48.732;9.148;2023-04-05T04:35:18;0.50;99.90
4828;DHT22;2428;48.732;9.148;2023-04-05T04:37:46;0.40;99.90
4828;DHT22;2428;48.732;9.148;2023-04-05T04:40:14;0.40;99.90
4828;DHT22;2428;48.732;9.148;2023-04-05T04:42:44;0.40;99.90
4828;DHT22;2428;48.732;9.148;2023-04-05T04:45:16;0.30;99.90
4828;DHT22;2428;48.732;9.148;2023-04-05T04:47:43;0.30;99.90
4828;DHT22;2428;48.732;9.148;2023-04-05T04:50:09;0.40;99.90
4828;DHT22;2428;48.732;9.148;2023-04-05T04:52:37;0.40;99.90
4828;DHT22;2428;48.732;9.148;2023-04-05T04:55:02;0.40;99.90
4828;DHT22;2428;48.732;9.148;2023-04-05T04:57:28;0.40;99.90
4828;DHT22;2428;48.732;9.148;2023-04-05T04:59:54;0.30;99.90
4828;DHT22;2428;48.732;9.148;2023-04-05T05:02:24;0.30;99.90
4828;DHT22;2428;48.732;9.148;2023-04-05T05:04:49;0.30;99.90
4828;DHT22;2428;48.732;9.148;2023-04-05T05:07:15;0.30;99.90
4828;DHT22;2428;48.732;9.148;2023-04-05T05:09:42;0.30;99.90
4828;DHT22;2428;48.732;9.148;2023-04-05T05:12:07;0.30;99.90
4828;DHT22;2428;48.732;9.148;2023-04-05T05:14:33;0.30;99.90
4828;DHT22;2428;48.732;9.148;2023-04-05T05:16:58;0.30;99.90
4828;DHT22;2428;48.732;9.148;2023-04-05T05:19:24;0.30;99.90
4828;DHT22;2428;48.732;9.148;2023-04-05T05:21:50;0.30;99.90
4828;DHT22;2428;48.732;9.148;2023-04-05T05:24:17;0.40;99.90
4828;DHT22;2428;48.732;9.148;2023-04-05T05:26:43;0.40;99.90
4828;DHT22;2428;48.732;9.148;2023-04-05T05:29:08;0.50;99.90
4828;DHT22;2428;48.732;9.148;2023-04-05T05:31:34;0.50;99.90
4828;DHT22;2428;48.732;9.148;2023-04-05T05:34:00;0.50;99.90
4828;DHT22;2428;48.732;9.148;2023-04-05T05:36:26;0.40;99.90
4828;DHT22;2428;48.732;9.148;2023-04-05T05:38:52;0.40;99.90
4828;DHT22;2428;48.732;9.148;2023-04-05T05:41:18;0.40;99.90
4828;DHT22;2428;48.732;9.148;2023-04-05T05:43:45;0.40;99.90
4828;DHT22;2428;48.732;9.148;2023-04-05T05:46:11;0.40;99.90
4828;DHT22;2428;48.732;9.148;2023-04-05T05:48:37;0.40;99.90
4828;DHT22;2428;48.732;9.148;2023-04-05T05:51:02;0.40;99.90
4828;DHT22;2428;48.732;9.148;2023-04-05T05:53:35;0.40;99.90
4828;DHT22;2428;48.732;9.148;2023-04-05T05:56:01;0.50;99.90
4828;DHT22;2428;48.732;9.148;2023-04-05T05:58:27;0.50;99.90
4828;DHT22;2428;48.732;9.148;2023-04-05T06:00:52;0.60;99.90
4828;DHT22;2428;48.732;9.148;2023-04-05T06:03:22;0.60;99.90
4828;DHT22;2428;48.732;9.148;2023-04-05T06:05:56;0.60;99.90
4828;DHT22;2428;48.732;9.148;2023-04-05T06:08:22;0.60;99.90
4828;DHT22;2428;48.732;9.148;2023-04-05T06:10:49;0.70;99.90
4828;DHT22;2428;48.732;9.148;2023-04-05T06:13:15;0.70;99.90
4828;DHT22;2428;48.732;9.148;2023-04-05T06:15:44;0.80;99.90
4828;DHT22;2428;48.732;9.148;2023-04-05T06:18:11;0.90;99.90
4828;DHT22;2428;48.732;9.148;2023-04-05T06:20:37;1.00;99.90
4828;DHT22;2428;48.732;9.148;2023-04-05T06:23:05;1.10;99.90
4828;DHT22;2428;48.732;9.148;2023-04-05T06:25:32;1.10;99.90
4828;DHT22;2428;48.732;9.148;2023-04-05T06:27:57;1.20;99.90
4828;DHT22;2428;48.732;9.148;2023-04-05T06:30:23;1.30;99.90
4828;DHT22;2428;48.732;9.148;2023-04-05T06:32:48;1.40;99.90
4828;DHT22;2428;48.732;9.148;2023-04-05T06:35:19;1.40;99.90
4828;DHT22;2428;48.732;9.148;2023-04-05T06:37:44;1.50;99.90
4828;DHT22;2428;48.732;9.148;2023-04-05T06:40:10;1.60;99.90
4828;DHT22;2428;48.732;9.148;2023-04-05T06:42:36;1.70;99.90
4828;DHT22;2428;48.732;9.148;2023-04-05T06:45:02;1.70;99.90
4828;DHT22;2428;48.732;9.148;2023-04-05T06:47:31;1.80;99.90
4828;DHT22;2428;48.732;9.148;2023-04-05T06:49:57;2.00;99.90
4828;DHT22;2428;48.732;9.148;2023-04-05T06:52:23;2.00;99.90
4828;DHT22;2428;48.732;9.148;2023-04-05T06:54:48;2.10;99.90
4828;DHT22;2428;48.732;9.148;2023-04-05T06:57:14;2.20;99.90
4828;DHT22;2428;48.732;9.148;2023-04-05T06:59:39;2.20;99.90
4828;DHT22;2428;48.732;9.148;2023-04-05T07:02:05;2.30;99.90
4828;DHT22;2428;48.732;9.148;2023-04-05T07:04:31;2.30;99.90
4828;DHT22;2428;48.732;9.148;2023-04-05T07:07:01;2.40;99.90
4828;DHT22;2428;48.732;9.148;2023-04-05T07:09:27;2.40;99.90
4828;DHT22;2428;48.732;9.148;2023-04-05T07:11:55;2.40;99.90
4828;DHT22;2428;48.732;9.148;2023-04-05T07:14:22;2.50;99.90
4828;DHT22;2428;48.732;9.148;2023-04-05T07:16:47;2.50;99.90
4828;DHT22;2428;48.732;9.148;2023-04-05T07:19:13;2.50;99.90
4828;DHT22;2428;48.732;9.148;2023-04-05T07:21:38;2.50;99.90
4828;DHT22;2428;48.732;9.148;2023-04-05T07:24:04;2.60;99.90
4828;DHT22;2428;48.732;9.148;2023-04-05T07:26:31;2.60;99.90
4828;DHT22;2428;48.732;9.148;2023-04-05T07:29:00;2.70;99.90
4828;DHT22;2428;48.732;9.148;2023-04-05T07:31:26;2.70;99.90
4828;DHT22;2428;48.732;9.148;2023-04-05T07:33:52;2.80;99.90
4828;DHT22;2428;48.732;9.148;2023-04-05T07:36:17;2.90;99.90
4828;DHT22;2428;48.732;9.148;2023-04-05T07:38:43;3.00;99.90
4828;DHT22;2428;48.732;9.148;2023-04-05T07:41:09;3.10;99.90
4828;DHT22;2428;48.732;9.148;2023-04-05T07:43:35;3.10;99.90
4828;DHT22;2428;48.732;9.148;2023-04-05T07:46:02;3.20;99.90
4828;DHT22;2428;48.732;9.148;2023-04-05T07:48:28;3.30;99.90
4828;DHT22;2428;48.732;9.148;2023-04-05T07:50:54;3.40;99.90
4828;DHT22;2428;48.732;9.148;2023-04-05T07:53:20;3.40;99.90
4828;DHT22;2428;48.732;9.148;2023-04-05T07:55:45;3.50;99.90
4828;DHT22;2428;48.732;9.148;2023-04-05T07:58:11;3.50;99.90
4828;DHT22;2428;48.732;9.148;2023-04-05T08:00:37;3.60;99.90
4828;DHT22;2428;48.732;9.148;2023-04-05T08:03:03;3.60;99.90
4828;DHT22;2428;48.732;9.148;2023-04-05T08:05:31;3.60;99.90
4828;DHT22;2428;48.732;9.148;2023-04-05T08:07:57;3.60;99.90
4828;DHT22;2428;48.732;9.148;2023-04-05T08:10:25;3.50;99.90
4828;DHT22;2428;48.732;9.148;2023-04-05T08:12:52;3.50;99.90
4828;DHT22;2428;48.732;9.148;2023-04-05T08:15:17;3.70;99.90
4828;DHT22;2428;48.732;9.148;2023-04-05T08:17:43;3.80;99.90
4828;DHT22;2428;48.732;9.148;2023-04-05T08:20:08;3.90;99.90
4828;DHT22;2428;48.732;9.148;2023-04-05T08:22:34;4.00;99.90
4828;DHT22;2428;48.732;9.148;2023-04-05T08:25:00;4.10;99.90
4828;DHT22;2428;48.732;9.148;2023-04-05T08:27:26;4.00;99.90
4828;DHT22;2428;48.732;9.148;2023-04-05T08:29:51;4.10;99.90
4828;DHT22;2428;48.732;9.148;2023-04-05T08:32:17;4.20;99.90
4828;DHT22;2428;48.732;9.148;2023-04-05T08:34:42;4.20;99.90
4828;DHT22;2428;48.732;9.148;2023-04-05T08:37:08;4.30;99.90
4828;DHT22;2428;48.732;9.148;2023-04-05T08:39:34;4.40;99.90
4828;DHT22;2428;48.732;9.148;2023-04-05T08:42:10;4.50;99.90
4828;DHT22;2428;48.732;9.148;2023-04-05T08:44:37;4.70;99.90
4828;DHT22;2428;48.732;9.148;2023-04-05T08:47:07;4.70;99.90
4828;DHT22;2428;48.732;9.148;2023-04-05T08:49:32;4.90;99.90
4828;DHT22;2428;48.732;9.148;2023-04-05T08:51:59;5.00;99.90
4828;DHT22;2428;48.732;9.148;2023-04-05T08:54:26;5.00;99.90
4828;DHT22;2428;48.732;9.148;2023-04-05T08:56:52;5.10;99.90
4828;DHT22;2428;48.732;9.148;2023-04-05T08:59:19;5.10;99.90
4828;DHT22;2428;48.732;9.148;2023-04-05T09:01:46;5.20;99.90
4828;DHT22;2428;48.732;9.148;2023-04-05T09:04:23;5.30;99.90
4828;DHT22;2428;48.732;9.148;2023-04-05T09:06:54;5.20;99.90
4828;DHT22;2428;48.732;9.148;2023-04-05T09:09:21;5.30;99.90
4828;DHT22;2428;48.732;9.148;2023-04-05T09:11:47;5.40;99.90
4828;DHT22;2428;48.732;9.148;2023-04-05T09:14:14;5.50;99.90
4828;DHT22;2428;48.732;9.148;2023-04-05T09:16:40;5.50;99.90
4828;DHT22;2428;48.732;9.148;2023-04-05T09:19:07;5.50;99.90
4828;DHT22;2428;48.732;9.148;2023-04-05T09:22:01;5.60;99.90
4828;DHT22;2428;48.732;9.148;2023-04-05T09:24:33;5.70;99.90
4828;DHT22;2428;48.732;9.148;2023-04-05T09:27:11;5.80;99.90
4828;DHT22;2428;48.732;9.148;2023-04-05T09:29:42;5.80;99.90
4828;DHT22;2428;48.732;9.148;2023-04-05T09:32:10;5.80;99.90
4828;DHT22;2428;48.732;9.148;2023-04-05T09:34:37;5.70;99.90
4828;DHT22;2428;48.732;9.148;2023-04-05T09:37:16;5.80;99.90
4828;DHT22;2428;48.732;9.148;2023-04-05T09:39:42;5.90;99.90
4828;DHT22;2428;48.732;9.148;2023-04-05T09:42:12;5.90;99.90
4828;DHT22;2428;48.732;9.148;2023-04-05T09:44:59;5.90;99.90
4828;DHT22;2428;48.732;9.148;2023-04-05T09:47:27;5.90;99.90
4828;DHT22;2428;48.732;9.148;2023-04-05T09:49:57;6.10;99.90
4828;DHT22;2428;48.732;9.148;2023-04-05T09:52:27;6.30;99.90
4828;DHT22;2428;48.732;9.148;2023-04-05T09:54:58;6.40;99.90
4828;DHT22;2428;48.732;9.148;2023-04-05T09:57:26;6.60;99.90
4828;DHT22;2428;48.732;9.148;2023-04-05T09:59:52;6.80;99.90
4828;DHT22;2428;48.732;9.148;2023-04-05T10:02:18;7.00;99.90
4828;DHT22;2428;48.732;9.148;2023-04-05T10:04:45;7.40;99.90
4828;DHT22;2428;48.732;9.148;2023-04-05T10:07:13;8.00;99.90
4828;DHT22;2428;48.732;9.148;2023-04-05T10:09:40;8.80;99.90
4828;DHT22;2428;48.732;9.148;2023-04-05T10:12:07;9.40;99.90
4828;DHT22;2428;48.732;9.148;2023-04-05T10:14:34;10.50;97.80
4828;DHT22;2428;48.732;9.148;2023-04-05T10:17:11;12.00;97.00
4828;DHT22;2428;48.732;9.148;2023-04-05T10:22:29;13.00;85.00
4828;DHT22;2428;48.732;9.148;2023-04-05T10:25:06;13.10;83.10
4828;DHT22;2428;48.732;9.148;2023-04-05T10:27:46;13.70;80.40
4828;DHT22;2428;48.732;9.148;2023-04-05T10:30:14;14.70;78.00
4828;DHT22;2428;48.732;9.148;2023-04-05T10:35:59;14.40;64.20
4828;DHT22;2428;48.732;9.148;2023-04-05T10:38:28;12.70;69.10
4828;DHT22;2428;48.732;9.148;2023-04-05T10:41:08;12.80;71.10
4828;DHT22;2428;48.732;9.148;2023-04-05T10:43:37;14.20;68.30
4828;DHT22;2428;48.732;9.148;2023-04-05T10:46:05;16.20;68.80
4828;DHT22;2428;48.732;9.148;2023-04-05T10:48:47;18.50;63.50
4828;DHT22;2428;48.732;9.148;2023-04-05T10:51:18;20.00;57.60
4828;DHT22;2428;48.732;9.148;2023-04-05T10:53:45;20.80;54.40
4828;DHT22;2428;48.732;9.148;2023-04-05T10:56:11;21.80;52.40
4828;DHT22;2428;48.732;9.148;2023-04-05T10:58:37;22.30;49.70
4828;DHT22;2428;48.732;9.148;2023-04-05T11:01:05;22.20;47.40
4828;DHT22;2428;48.732;9.148;2023-04-05T11:08:59;23.30;45.30
4828;DHT22;2428;48.732;9.148;2023-04-05T11:11:25;23.10;44.70
4828;DHT22;2428;48.732;9.148;2023-04-05T11:13:52;22.80;42.90
4828;DHT22;2428;48.732;9.148;2023-04-05T11:16:19;21.70;42.90
4828;DHT22;2428;48.732;9.148;2023-04-05T11:18:46;21.40;43.10
4828;DHT22;2428;48.732;9.148;2023-04-05T11:21:19;19.40;42.50
4828;DHT22;2428;48.732;9.148;2023-04-05T11:24:08;17.90;43.20
4828;DHT22;2428;48.732;9.148;2023-04-05T11:29:08;16.30;46.50
4828;DHT22;2428;48.732;9.148;2023-04-05T11:31:34;16.90;48.10
4828;DHT22;2428;48.732;9.148;2023-04-05T11:34:02;17.30;47.50
4828;DHT22;2428;48.732;9.148;2023-04-05T11:47:05;17.20;44.60
4828;DHT22;2428;48.732;9.148;2023-04-05T11:49:32;16.60;48.00
4828;DHT22;2428;48.732;9.148;2023-04-05T11:52:09;16.00;48.00
4828;DHT22;2428;48.732;9.148;2023-04-05T11:54:35;14.50;48.60
4828;DHT22;2428;48.732;9.148;2023-04-05T11:57:01;13.20;50.70
4828;DHT22;2428;48.732;9.148;2023-04-05T11:59:32;12.60;49.90
4828;DHT22;2428;48.732;9.148;2023-04-05T12:02:02;11.60;52.50
4828;DHT22;2428;48.732;9.148;2023-04-05T12:04:29;10.90;52.60
4828;DHT22;2428;48.732;9.148;2023-04-05T12:09:57;9.70;55.50
4828;DHT22;2428;48.732;9.148;2023-04-05T12:12:23;9.60;57.20
4828;DHT22;2428;48.732;9.148;2023-04-05T12:14:49;9.70;58.30
4828;DHT22;2428;48.732;9.148;2023-04-05T12:17:14;9.80;58.60
4828;DHT22;2428;48.732;9.148;2023-04-05T12:19:41;9.90;60.00
4828;DHT22;2428;48.732;9.148;2023-04-05T12:22:07;9.70;57.60
4828;DHT22;2428;48.732;9.148;2023-04-05T12:24:32;9.10;57.60
4828;DHT22;2428;48.732;9.148;2023-04-05T12:26:59;9.10;61.40
4828;DHT22;2428;48.732;9.148;2023-04-05T12:29:25;9.00;58.20
4828;DHT22;2428;48.732;9.148;2023-04-05T12:31:50;9.00;61.20
4828;DHT22;2428;48.732;9.148;2023-04-05T12:34:23;9.10;60.00
4828;DHT22;2428;48.732;9.148;2023-04-05T12:36:52;9.10;58.60
4828;DHT22;2428;48.732;9.148;2023-04-05T12:39:20;8.60;59.80
4828;DHT22;2428;48.732;9.148;2023-04-05T12:41:57;8.50;60.20
4828;DHT22;2428;48.732;9.148;2023-04-05T12:44:28;8.50;62.10
4828;DHT22;2428;48.732;9.148;2023-04-05T12:46:59;8.70;64.20
4828;DHT22;2428;48.732;9.148;2023-04-05T12:49:27;8.90;63.70
4828;DHT22;2428;48.732;9.148;2023-04-05T12:51:53;9.00;65.30
4828;DHT22;2428;48.732;9.148;2023-04-05T12:54:22;9.10;62.00
4828;DHT22;2428;48.732;9.148;2023-04-05T12:56:54;9.10;61.10
4828;DHT22;2428;48.732;9.148;2023-04-05T12:59:21;9.00;59.70
4828;DHT22;2428;48.732;9.148;2023-04-05T13:01:46;8.80;59.40
4828;DHT22;2428;48.732;9.148;2023-04-05T13:04:12;8.70;59.60
4828;DHT22;2428;48.732;9.148;2023-04-05T13:06:37;8.70;61.30
4828;DHT22;2428;48.732;9.148;2023-04-05T13:09:03;8.80;62.30
4828;DHT22;2428;48.732;9.148;2023-04-05T13:11:29;8.80;63.10
4828;DHT22;2428;48.732;9.148;2023-04-05T13:13:54;8.80;62.00
4828;DHT22;2428;48.732;9.148;2023-04-05T13:16:20;8.80;61.00
4828;DHT22;2428;48.732;9.148;2023-04-05T13:18:46;8.80;63.60
4828;DHT22;2428;48.732;9.148;2023-04-05T13:21:11;8.80;61.30
4828;DHT22;2428;48.732;9.148;2023-04-05T13:23:39;8.80;66.00
4828;DHT22;2428;48.732;9.148;2023-04-05T13:26:05;8.90;64.60
4828;DHT22;2428;48.732;9.148;2023-04-05T13:28:31;8.90;60.40
4828;DHT22;2428;48.732;9.148;2023-04-05T13:30:58;8.80;61.50
4828;DHT22;2428;48.732;9.148;2023-04-05T13:33:24;8.90;63.40
4828;DHT22;2428;48.732;9.148;2023-04-05T13:35:49;8.80;61.50
4828;DHT22;2428;48.732;9.148;2023-04-05T13:38:15;8.90;61.70
4828;DHT22;2428;48.732;9.148;2023-04-05T13:40:41;8.80;62.00
4828;DHT22;2428;48.732;9.148;2023-04-05T13:43:07;8.80;60.90
4828;DHT22;2428;48.732;9.148;2023-04-05T13:45:33;8.80;64.60
4828;DHT22;2428;48.732;9.148;2023-04-05T13:48:00;8.90;63.80
4828;DHT22;2428;48.732;9.148;2023-04-05T13:50:28;9.00;67.30
4828;DHT22;2428;48.732;9.148;2023-04-05T13:52:54;9.00;63.60
4828;DHT22;2428;48.732;9.148;2023-04-05T13:55:19;9.10;63.00
4828;DHT22;2428;48.732;9.148;2023-04-05T13:57:45;9.30;64.40
4828;DHT22;2428;48.732;9.148;2023-04-05T14:00:11;9.30;65.20
4828;DHT22;2428;48.732;9.148;2023-04-05T14:02:37;9.40;63.60
4828;DHT22;2428;48.732;9.148;2023-04-05T14:05:04;9.60;66.70
4828;DHT22;2428;48.732;9.148;2023-04-05T14:07:30;9.70;64.20
4828;DHT22;2428;48.732;9.148;2023-04-05T14:09:56;9.90;64.30
4828;DHT22;2428;48.732;9.148;2023-04-05T14:12:22;9.90;62.70
4828;DHT22;2428;48.732;9.148;2023-04-05T14:14:49;9.80;59.80
4828;DHT22;2428;48.732;9.148;2023-04-05T14:17:14;9.70;59.50
4828;DHT22;2428;48.732;9.148;2023-04-05T14:19:40;9.70;62.10
4828;DHT22;2428;48.732;9.148;2023-04-05T14:22:06;9.90;63.30
4828;DHT22;2428;48.732;9.148;2023-04-05T14:24:31;10.10;60.90
4828;DHT22;2428;48.732;9.148;2023-04-05T14:26:57;10.30;59.90
4828;DHT22;2428;48.732;9.148;2023-04-05T14:29:22;10.40;61.30
4828;DHT22;2428;48.732;9.148;2023-04-05T14:31:48;10.40;61.10
4828;DHT22;2428;48.732;9.148;2023-04-05T14:34:14;10.60;60.80
4828;DHT22;2428;48.732;9.148;2023-04-05T14:36:40;10.80;61.30
4828;DHT22;2428;48.732;9.148;2023-04-05T14:39:05;10.90;59.70
4828;DHT22;2428;48.732;9.148;2023-04-05T14:41:31;11.00;59.40
4828;DHT22;2428;48.732;9.148;2023-04-05T14:43:57;11.10;60.30
4828;DHT22;2428;48.732;9.148;2023-04-05T14:46:23;11.30;59.00
4828;DHT22;2428;48.732;9.148;2023-04-05T14:48:48;11.30;58.00
4828;DHT22;2428;48.732;9.148;2023-04-05T14:51:14;11.40;60.50
4828;DHT22;2428;48.732;9.148;2023-04-05T14:53:40;11.40;59.00
4828;DHT22;2428;48.732;9.148;2023-04-05T14:56:06;11.60;58.80
4828;DHT22;2428;48.732;9.148;2023-04-05T14:58:34;11.50;57.30
4828;DHT22;2428;48.732;9.148;2023-04-05T15:01:00;11.60;58.60
4828;DHT22;2428;48.732;9.148;2023-04-05T15:03:26;11.60;60.60
4828;DHT22;2428;48.732;9.148;2023-04-05T15:05:52;11.70;59.80
4828;DHT22;2428;48.732;9.148;2023-04-05T15:08:17;11.70;58.50
4828;DHT22;2428;48.732;9.148;2023-04-05T15:10:44;11.60;58.10
4828;DHT22;2428;48.732;9.148;2023-04-05T15:13:10;11.60;58.80
4828;DHT22;2428;48.732;9.148;2023-04-05T15:15:36;11.30;56.40
4828;DHT22;2428;48.732;9.148;2023-04-05T15:18:02;11.00;57.80
4828;DHT22;2428;48.732;9.148;2023-04-05T15:20:28;11.20;63.30
4828;DHT22;2428;48.732;9.148;2023-04-05T15:22:54;11.30;59.20
4828;DHT22;2428;48.732;9.148;2023-04-05T15:25:21;11.40;59.00
4828;DHT22;2428;48.732;9.148;2023-04-05T15:27:46;11.40;57.50
4828;DHT22;2428;48.732;9.148;2023-04-05T15:30:12;11.40;59.40
4828;DHT22;2428;48.732;9.148;2023-04-05T15:32:38;11.40;57.70
4828;DHT22;2428;48.732;9.148;2023-04-05T15:35:04;11.60;58.00
4828;DHT22;2428;48.732;9.148;2023-04-05T15:37:30;11.50;59.30
4828;DHT22;2428;48.732;9.148;2023-04-05T15:39:55;11.30;58.70
4828;DHT22;2428;48.732;9.148;2023-04-05T15:42:21;11.00;57.80
4828;DHT22;2428;48.732;9.148;2023-04-05T15:44:50;10.60;57.70
4828;DHT22;2428;48.732;9.148;2023-04-05T15:47:16;10.50;59.10
4828;DHT22;2428;48.732;9.148;2023-04-05T15:49:42;10.60;58.00
4828;DHT22;2428;48.732;9.148;2023-04-05T15:52:08;10.70;59.30
4828;DHT22;2428;48.732;9.148;2023-04-05T15:54:35;10.70;57.20
4828;DHT22;2428;48.732;9.148;2023-04-05T15:57:00;10.80;58.40
4828;DHT22;2428;48.732;9.148;2023-04-05T15:59:26;10.80;60.10
4828;DHT22;2428;48.732;9.148;2023-04-05T16:01:52;10.80;59.20
4828;DHT22;2428;48.732;9.148;2023-04-05T16:04:18;10.70;59.50
4828;DHT22;2428;48.732;9.148;2023-04-05T16:06:43;10.70;59.90
4828;DHT22;2428;48.732;9.148;2023-04-05T16:09:09;10.70;61.10
4828;DHT22;2428;48.732;9.148;2023-04-05T16:11:35;10.70;60.00
4828;DHT22;2428;48.732;9.148;2023-04-05T16:14:01;10.60;58.40
4828;DHT22;2428;48.732;9.148;2023-04-05T16:16:27;10.50;59.50
4828;DHT22;2428;48.732;9.148;2023-04-05T16:18:53;10.50;58.30
4828;DHT22;2428;48.732;9.148;2023-04-05T16:21:19;10.40;59.60
4828;DHT22;2428;48.732;9.148;2023-04-05T16:23:44;10.30;60.00
4828;DHT22;2428;48.732;9.148;2023-04-05T16:26:11;10.40;59.50
4828;DHT22;2428;48.732;9.148;2023-04-05T16:28:37;10.20;59.80
4828;DHT22;2428;48.732;9.148;2023-04-05T16:31:02;10.20;59.50
4828;DHT22;2428;48.732;9.148;2023-04-05T16:33:28;10.10;59.40
4828;DHT22;2428;48.732;9.148;2023-04-05T16:35:53;10.10;58.90
4828;DHT22;2428;48.732;9.148;2023-04-05T16:38:19;10.20;59.90
4828;DHT22;2428;48.732;9.148;2023-04-05T16:40:45;10.10;62.00
4828;DHT22;2428;48.732;9.148;2023-04-05T16:43:10;10.10;59.80
4828;DHT22;2428;48.732;9.148;2023-04-05T16:45:36;10.10;60.00
4828;DHT22;2428;48.732;9.148;2023-04-05T16:48:03;10.00;58.70